Thursday, October 19, 2017, 7:04 AM EDT
Back to Local

KCQX, Chatham Municipal Airport

Location: Chatham, MA, United States Lat: 41.683
Local Time: 7:04 AM EDT (11:04 GMT) Lon: -70
Time Zone: US/Eastern Elev: 68 ft

Show me the last for .
Show Coded

Time T Td Feel RH Dir Speed Gust Alt SLP Vis Weather Sky Remarks
2017-10-19 06:52 58 58 - 100 210° 3 - 30.27 30.27 6 BR SCT007 None
2017-10-19 06:42 58 58 - 100 210° 3 - 30.27 - 9 SCT007 None
2017-10-19 06:20 58 58 - 100 210° 5 - 30.27 - 9 BKN007 None
2017-10-19 06:07 58 58 - 100 210° 6 - 30.27 - 8 SCT007 None
2017-10-19 05:52 58 58 - 100 220° 5 - 30.27 30.27 10 CLR None
2017-10-19 04:52 58 58 - 100 220° 5 - 30.27 30.27 10 CLR None
2017-10-19 03:52 58 58 - 100 220° 7 - 30.27 30.27 10 CLR None
2017-10-19 02:52 58 57 - 96 230° 6 - 30.27 30.27 10 CLR None
2017-10-19 01:52 58 57 - 96 220° 3 - 30.28 30.28 10 CLR 6-hr Min Temp (2am): 57.0°F
6-hr Max Temp (2am): 59.0°F
2017-10-19 00:52 58 57 - 96 230° 5 - 30.29 30.29 10 CLR 24-hr Min Temp (1am): 48.0°F
24-hr Max Temp (1am): 68.0°F
2017-10-18 23:52 58 56 - 93 230° 5 - 30.29 30.29 10 CLR None
2017-10-18 22:52 57 55 - 93 220° 3 - 30.30 30.30 10 CLR None
2017-10-18 21:52 58 56 - 93 230° 3 - 30.30 30.30 10 CLR None
2017-10-18 20:52 59 57 - 93 230° 5 - 30.30 30.30 10 CLR None
2017-10-18 19:52 58 55 - 90 230° 3 - 30.28 30.29 10 CLR 6-hr Min Temp (8pm): 57.0°F
6-hr Max Temp (8pm): 68.0°F
2017-10-18 18:52 58 54 - 86 - Calm - 30.28 30.28 10 CLR None
2017-10-18 17:52 61 54 - 77 - Calm - 30.25 30.26 10 CLR None
2017-10-18 16:52 65 54 - 67 Variable 3 - 30.24 30.24 10 CLR None
2017-10-18 15:52 65 55 - 70 Variable 7 - 30.24 30.24 10 CLR None
2017-10-18 14:52 68 48 - 48 Variable 5 - 30.24 30.24 10 CLR None
2017-10-18 13:52 68 48 - 48 290° 7 - 30.23 30.23 10 CLR 6-hr Min Temp (2pm): 57.9°F
6-hr Max Temp (2pm): 68.0°F
2017-10-18 12:52 66 47 - 50 Variable 6 - 30.25 30.26 10 CLR None
2017-10-18 11:52 67 47 - 48 - - - 30.27 30.27 10 CLR None
2017-10-18 10:52 65 46 - 50 Variable 5 16 30.27 30.27 10 CLR None
2017-10-18 09:52 63 48 - 58 250° 6 - 30.27 30.27 10 CLR None
2017-10-18 08:52 60 47 - 61 250° 8 - 30.27 30.27 10 CLR None
2017-10-18 07:52 58 47 - 66 250° 7 - 30.26 30.26 10 CLR 6-hr Min Temp (8am): 48.9°F
6-hr Max Temp (8am): 57.9°F

Support USWX by starting your Amazon purchase here.